createdAt,value
2022-12-12T05:03:45.173Z,81.60
2022-12-12T05:07:53.496Z,81.85
2022-12-12T05:11:56.538Z,81.70
2022-12-12T05:16:01.480Z,81.84
2022-12-12T05:20:06.518Z,81.78
2022-12-12T05:24:09.392Z,81.88
2022-12-12T05:28:12.057Z,82.01
2022-12-12T05:32:14.653Z,81.81
2022-12-12T05:36:19.182Z,82.36
2022-12-12T05:40:22.514Z,82.25
2022-12-12T05:44:25.197Z,82.59
2022-12-12T05:48:28.332Z,82.39
2022-12-12T05:52:32.344Z,82.13
2022-12-12T05:56:34.948Z,81.74
2022-12-12T06:00:37.606Z,81.77
2022-12-12T06:04:40.380Z,81.44
2022-12-12T06:08:44.620Z,81.54
2022-12-12T06:12:47.435Z,81.69
2022-12-12T06:16:50.014Z,81.48
2022-12-12T06:20:52.660Z,81.24
2022-12-12T06:24:56.618Z,81.68
2022-12-12T06:28:59.239Z,81.05
2022-12-12T06:33:03.289Z,81.42
2022-12-12T06:37:09.768Z,81.69
2022-12-12T06:41:15.961Z,81.60
2022-12-12T06:45:18.814Z,81.76
2022-12-12T06:49:21.422Z,81.68
2022-12-12T06:53:24.197Z,81.58
2022-12-12T06:57:28.809Z,81.33
2022-12-12T07:01:31.535Z,81.59
2022-12-12T07:05:34.725Z,81.40
2022-12-12T07:09:37.193Z,81.22
2022-12-12T07:13:41.509Z,81.34
2022-12-12T07:17:44.173Z,81.30
2022-12-12T07:21:46.783Z,81.07
2022-12-12T07:25:49.538Z,80.90
2022-12-12T07:29:53.473Z,80.92
2022-12-12T07:33:56.108Z,81.04
2022-12-12T07:37:59.242Z,81.05
2022-12-12T07:42:01.901Z,80.47
2022-12-12T07:46:07.466Z,80.35
2022-12-12T07:50:10.888Z,79.75
2022-12-12T07:54:13.506Z,79.37
2022-12-12T07:58:16.150Z,79.51
2022-12-12T08:02:20.170Z,79.83
2022-12-12T08:06:24.303Z,79.97
2022-12-12T08:10:27.133Z,79.44
2022-12-12T08:14:29.782Z,79.54
2022-12-12T08:18:33.898Z,79.26
2022-12-12T08:22:36.508Z,78.90
2022-12-12T08:26:39.181Z,79.05
2022-12-12T08:30:41.821Z,78.74
2022-12-12T08:34:45.854Z,78.88
2022-12-12T08:38:48.572Z,79.13
2022-12-12T08:42:51.222Z,78.91
2022-12-12T08:46:54.028Z,78.96
2022-12-12T08:50:58.276Z,78.89
2022-12-12T08:55:00.884Z,78.81
2022-12-12T08:59:03.712Z,78.72
2022-12-12T09:03:06.532Z,78.60
2022-12-12T09:07:10.559Z,78.22
2022-12-12T09:11:13.936Z,78.40
2022-12-12T09:15:16.794Z,78.45
2022-12-12T09:19:19.499Z,77.81
2022-12-12T09:23:24.253Z,77.43
2022-12-12T09:27:27.132Z,77.10
2022-12-12T09:31:29.790Z,76.84
2022-12-12T09:35:32.913Z,76.52
2022-12-12T09:39:37.007Z,76.94
2022-12-12T09:43:45.251Z,76.43
2022-12-12T09:47:51.928Z,76.71
2022-12-12T09:51:56.856Z,76.51
2022-12-12T09:56:08.663Z,76.28
2022-12-12T10:00:14.227Z,76.02
2022-12-12T10:04:25.521Z,75.72
2022-12-12T10:08:38.422Z,75.29
2022-12-12T10:12:42.581Z,75.22
2022-12-12T10:16:46.614Z,75.24
2022-12-12T10:20:51.987Z,74.85
2022-12-12T10:24:59.020Z,75.39
2022-12-12T10:29:11.802Z,74.53
2022-12-12T10:33:21.759Z,74.52
2022-12-12T10:37:37.843Z,73.85
2022-12-12T10:41:46.073Z,74.20
2022-12-12T10:46:12.059Z,74.10
2022-12-12T10:50:26.280Z,73.83
2022-12-12T10:54:34.521Z,73.91
2022-12-12T10:58:39.948Z,73.72
2022-12-12T11:02:45.296Z,73.20
2022-12-12T11:06:51.698Z,73.32
2022-12-12T11:11:07.450Z,73.46
2022-12-12T11:15:16.988Z,72.89
2022-12-12T11:19:23.490Z,73.19
2022-12-12T11:23:29.286Z,72.86
2022-12-12T11:27:35.326Z,72.53
2022-12-12T11:31:38.082Z,72.76
2022-12-12T11:35:47.760Z,73.12
2022-12-12T11:39:52.557Z,73.10
2022-12-12T11:44:00.189Z,72.62
2022-12-12T11:48:03.150Z,72.50
2022-12-12T11:52:19.977Z,72.27
2022-12-12T11:56:33.223Z,72.30
2022-12-12T12:00:45.822Z,72.67
2022-12-12T12:04:55.633Z,72.96
2022-12-12T12:09:18.675Z,72.24
2022-12-12T12:13:35.886Z,72.42
2022-12-12T12:18:08.447Z,72.05
2022-12-12T12:22:21.756Z,72.00
2022-12-12T12:26:34.470Z,72.47
2022-12-12T12:30:49.903Z,71.82
2022-12-12T12:35:04.600Z,71.55
2022-12-12T12:39:22.444Z,71.94
2022-12-12T12:43:43.097Z,71.96
2022-12-12T12:47:52.126Z,72.13
2022-12-12T12:52:00.099Z,71.56
2022-12-12T12:56:10.067Z,71.18
2022-12-12T13:00:17.975Z,71.90
2022-12-12T13:04:23.809Z,71.38
2022-12-12T13:08:32.624Z,71.31
2022-12-12T13:12:39.092Z,71.78
2022-12-12T13:16:45.183Z,71.62
2022-12-12T13:20:56.374Z,71.61
2022-12-12T13:25:07.084Z,70.97
2022-12-12T13:29:31.586Z,71.32
2022-12-12T13:33:43.667Z,70.73
2022-12-12T13:37:49.865Z,71.27
2022-12-12T13:41:58.875Z,70.73
2022-12-12T13:46:34.923Z,70.63
2022-12-12T13:50:38.985Z,70.68
2022-12-12T13:54:46.644Z,70.98
2022-12-12T13:58:49.351Z,70.43
2022-12-12T14:03:12.106Z,70.56
2022-12-12T14:07:18.710Z,71.69
2022-12-12T14:11:28.682Z,71.69
2022-12-12T14:15:32.966Z,71.22
2022-12-12T14:19:38.903Z,71.53
2022-12-12T14:23:44.731Z,71.50
2022-12-12T14:28:16.704Z,72.17
2022-12-12T14:32:43.861Z,73.32
2022-12-12T14:37:13.780Z,73.19
2022-12-12T14:41:22.168Z,73.67
2022-12-12T14:45:30.758Z,74.43
2022-12-12T14:49:33.381Z,75.14
2022-12-12T14:53:46.883Z,75.62
2022-12-12T14:57:53.334Z,76.50
2022-12-12T15:01:59.037Z,76.85
2022-12-12T15:06:22.234Z,77.72
2022-12-12T15:10:27.679Z,78.65
2022-12-12T15:14:31.792Z,79.16
2022-12-12T15:18:34.449Z,78.80
2022-12-12T15:22:41.649Z,79.45
2022-12-12T15:26:46.355Z,79.94
2022-12-12T15:30:53.415Z,79.71
2022-12-12T15:35:02.662Z,79.40
2022-12-12T15:39:14.323Z,79.24
2022-12-12T15:43:19.795Z,79.83
2022-12-12T15:47:23.900Z,79.74
2022-12-12T15:51:31.651Z,80.18
2022-12-12T15:55:35.531Z,80.52
2022-12-12T15:59:38.491Z,80.52
2022-12-12T16:03:55.791Z,80.38
2022-12-12T16:08:43.327Z,80.43
2022-12-12T16:13:03.473Z,80.10
2022-12-12T16:17:07.880Z,80.93
2022-12-12T16:21:11.943Z,81.07
2022-12-12T16:25:19.596Z,81.58
2022-12-12T16:29:22.217Z,81.07
2022-12-12T16:33:31.556Z,81.01
2022-12-12T16:37:35.673Z,80.71
2022-12-12T16:41:38.518Z,80.70
2022-12-12T16:45:42.278Z,80.69
2022-12-12T16:49:45.437Z,81.43
2022-12-12T16:53:49.412Z,81.40
2022-12-12T16:57:52.340Z,81.68
2022-12-12T17:01:55.102Z,81.69
2022-12-12T17:05:57.690Z,81.30
2022-12-12T17:10:01.722Z,81.24
2022-12-12T17:14:05.385Z,81.26
2022-12-12T17:18:08.378Z,81.75
2022-12-12T17:22:11.578Z,81.27
2022-12-12T17:26:15.417Z,81.05
2022-12-12T17:30:22.319Z,80.66
2022-12-12T17:34:25.028Z,81.13
2022-12-12T17:38:28.030Z,81.05
2022-12-12T17:42:32.523Z,81.25
2022-12-12T17:46:35.240Z,81.31
2022-12-12T17:50:41.663Z,81.78
2022-12-12T17:55:53.605Z,81.82
2022-12-12T17:59:09.566Z,81.87
2022-12-12T18:03:12.246Z,81.89
2022-12-12T18:07:15.013Z,81.89
2022-12-12T18:11:19.831Z,81.43
2022-12-12T18:15:24.189Z,81.73
2022-12-12T18:19:28.903Z,82.12
2022-12-12T18:23:31.907Z,81.91
2022-12-12T18:27:34.573Z,81.76
2022-12-12T18:31:41.537Z,81.43
2022-12-12T18:35:44.515Z,81.57
2022-12-12T18:39:47.083Z,81.83
2022-12-12T18:43:49.797Z,81.69
2022-12-12T18:47:55.621Z,82.01
2022-12-12T18:51:58.272Z,82.03
2022-12-12T18:56:00.965Z,81.88
2022-12-12T19:00:06.562Z,81.67
2022-12-12T19:04:14.134Z,81.45
2022-12-12T19:08:18.904Z,81.30
2022-12-12T19:12:21.632Z,81.22
2022-12-12T19:16:24.336Z,80.96
2022-12-12T19:20:28.567Z,80.80
2022-12-12T19:24:31.690Z,80.75
2022-12-12T19:28:35.285Z,81.01
2022-12-12T19:32:38.187Z,81.58
2022-12-12T19:36:42.523Z,81.16
2022-12-12T19:40:45.186Z,81.37
2022-12-12T19:44:47.784Z,81.43
2022-12-12T19:48:54.733Z,81.47
2022-12-12T19:52:59.700Z,80.82
2022-12-12T19:57:02.570Z,81.17
2022-12-12T20:01:08.088Z,81.48
2022-12-12T20:05:12.523Z,81.51
2022-12-12T20:09:18.771Z,81.30
2022-12-12T20:13:21.585Z,81.36
2022-12-12T20:17:24.654Z,81.32
2022-12-12T20:22:00.383Z,81.43
2022-12-12T20:25:52.655Z,81.13
2022-12-12T20:29:56.097Z,80.70
2022-12-12T20:34:02.428Z,80.90
2022-12-12T20:38:05.014Z,81.03
2022-12-12T20:42:10.969Z,81.22
2022-12-12T20:46:29.706Z,80.66
2022-12-12T20:50:32.523Z,80.38
2022-12-12T20:54:35.198Z,80.30
2022-12-12T20:58:39.807Z,80.39
2022-12-12T21:02:42.569Z,80.04
2022-12-12T21:06:48.106Z,80.08
2022-12-12T21:10:51.360Z,80.06
2022-12-12T21:15:01.077Z,80.42
2022-12-12T21:19:07.471Z,80.84
2022-12-12T21:23:10.128Z,80.70
2022-12-12T21:27:12.814Z,80.84
2022-12-12T21:31:19.534Z,80.36
2022-12-12T21:35:22.142Z,80.57
2022-12-12T21:39:27.637Z,80.37
2022-12-12T21:43:31.371Z,79.81
2022-12-12T21:47:36.819Z,80.12
2022-12-12T21:51:39.678Z,80.24
2022-12-12T21:55:42.438Z,79.68
2022-12-12T21:59:45.120Z,79.91
